createdAt,value
2019-03-23T00:00:46.527Z,0.00
2019-03-23T00:01:46.438Z,0.00
2019-03-23T00:02:46.363Z,0.00
2019-03-23T00:03:46.274Z,0.00
2019-03-23T00:04:46.187Z,0.00
2019-03-23T00:05:46.100Z,0.00
2019-03-23T00:06:46.025Z,0.00
2019-03-23T00:07:45.941Z,0.00
2019-03-23T00:08:45.866Z,0.00
2019-03-23T00:09:45.764Z,0.00
2019-03-23T00:10:45.689Z,0.00
2019-03-23T00:11:45.600Z,0.00
2019-03-23T00:12:45.524Z,0.00
2019-03-23T00:13:45.425Z,0.00
2019-03-23T00:14:45.351Z,0.00
2019-03-23T00:15:45.263Z,0.00
2019-03-23T00:16:45.175Z,0.00
2019-03-23T00:17:45.090Z,0.00
2019-03-23T00:18:45.015Z,0.00
2019-03-23T00:19:44.926Z,0.00
2019-03-23T00:20:44.841Z,0.00
2019-03-23T00:21:44.755Z,0.00
2019-03-23T00:22:44.676Z,0.00
2019-03-23T00:23:44.590Z,0.00
2019-03-23T00:24:44.515Z,0.00
2019-03-23T00:25:44.416Z,0.00
2019-03-23T00:26:44.342Z,0.00
2019-03-23T00:27:44.255Z,0.00
2019-03-23T00:28:44.166Z,0.00
2019-03-23T00:29:44.081Z,0.00
2019-03-23T00:30:44.003Z,0.00
2019-03-23T00:31:43.915Z,0.00
2019-03-23T00:32:43.829Z,0.00
2019-03-23T00:33:43.741Z,0.00
2019-03-23T00:34:43.655Z,0.00
2019-03-23T00:35:43.578Z,0.00
2019-03-23T00:36:43.491Z,0.00
2019-03-23T00:37:43.403Z,0.00
2019-03-23T00:38:43.328Z,0.00
2019-03-23T00:39:43.242Z,0.00
2019-03-23T00:40:43.153Z,0.00
2019-03-23T00:41:43.066Z,0.00
2019-03-23T00:42:42.980Z,0.00
2019-03-23T00:43:42.905Z,0.00
2019-03-23T00:44:42.817Z,0.00
2019-03-23T00:45:42.742Z,0.00
2019-03-23T00:46:42.655Z,0.00
2019-03-23T00:47:42.568Z,0.00
2019-03-23T00:48:42.480Z,0.00
2019-03-23T00:49:42.395Z,0.00
2019-03-23T00:50:42.309Z,0.00
2019-03-23T00:51:42.230Z,0.00
2019-03-23T00:52:42.142Z,0.00
2019-03-23T00:53:42.055Z,0.00
2019-03-23T00:54:41.969Z,0.00
2019-03-23T00:55:41.897Z,0.00
2019-03-23T00:56:41.805Z,0.00
2019-03-23T00:57:41.722Z,0.00
2019-03-23T00:58:41.631Z,0.00
2019-03-23T00:59:41.555Z,0.00
2019-03-23T01:00:41.469Z,0.00
2019-03-23T01:01:41.386Z,0.00
2019-03-23T01:02:42.084Z,0.00
2019-03-23T01:03:41.218Z,0.00
2019-03-23T01:04:41.131Z,0.00
2019-03-23T01:05:41.044Z,0.00
2019-03-23T01:06:51.454Z,0.00
2019-03-23T01:07:40.886Z,0.00
2019-03-23T01:08:40.795Z,0.00
2019-03-23T01:09:40.708Z,0.00
2019-03-23T01:10:40.622Z,0.00
2019-03-23T01:11:40.545Z,0.00
2019-03-23T01:12:40.463Z,0.00
2019-03-23T01:13:40.372Z,0.00
2019-03-23T01:14:40.295Z,0.00
2019-03-23T01:15:40.209Z,0.00
2019-03-23T01:16:40.122Z,0.00
2019-03-23T01:17:40.034Z,0.00
2019-03-23T01:18:39.946Z,0.00
2019-03-23T01:19:39.861Z,0.00
2019-03-23T01:20:49.387Z,0.00
2019-03-23T01:21:39.695Z,0.00
2019-03-23T01:22:39.608Z,0.00
2019-03-23T01:23:39.524Z,0.00
2019-03-23T01:24:39.446Z,0.00
2019-03-23T01:25:39.359Z,0.00
2019-03-23T01:26:39.277Z,0.00
2019-03-23T01:27:39.196Z,0.00
2019-03-23T01:28:39.109Z,0.00
2019-03-23T01:29:39.026Z,0.00
2019-03-23T01:30:38.935Z,0.00
2019-03-23T01:31:38.847Z,0.00
2019-03-23T01:32:38.774Z,0.00
2019-03-23T01:33:38.698Z,0.00
2019-03-23T05:36:11.326Z,1044.00
2019-03-23T05:37:11.385Z,1088.00
2019-03-23T05:38:10.749Z,1116.00
2019-03-23T05:39:10.673Z,1148.00
2019-03-23T05:40:10.574Z,1176.00
2019-03-23T05:41:10.487Z,1196.00
2019-03-23T05:42:10.410Z,1240.00
2019-03-23T05:43:10.324Z,1268.00
2019-03-23T05:44:10.236Z,1312.00
2019-03-23T05:45:10.155Z,1336.00
2019-03-23T05:46:10.062Z,1368.00
2019-03-23T05:47:09.987Z,1404.00
2019-03-23T05:48:09.900Z,1424.00
2019-03-23T05:49:09.826Z,1468.00
2019-03-23T05:50:09.724Z,1492.00
2019-03-23T05:51:09.637Z,1520.00
2019-03-23T05:52:09.562Z,1536.00
2019-03-23T05:53:09.475Z,1588.00
2019-03-23T05:54:09.387Z,1608.00
2019-03-23T05:55:09.300Z,1644.00
2019-03-23T05:56:09.226Z,1680.00
2019-03-23T05:57:09.138Z,1720.00
2019-03-23T05:58:09.054Z,1780.00
2019-03-23T05:59:08.964Z,1784.00
2019-03-23T06:00:08.877Z,1820.00
2019-03-23T06:01:08.802Z,1864.00
2019-03-23T06:02:08.726Z,1928.00
2019-03-23T06:03:08.634Z,1940.00
2019-03-23T06:04:08.538Z,1968.00
2019-03-23T06:05:08.457Z,2000.00
2019-03-23T06:06:08.377Z,2036.00
2019-03-23T06:07:08.291Z,2100.00
2019-03-23T06:08:08.203Z,2140.00
2019-03-23T06:09:08.127Z,2200.00
2019-03-23T06:10:08.039Z,2236.00
2019-03-23T06:11:07.958Z,2272.00
2019-03-23T06:12:07.877Z,2292.00
2019-03-23T06:13:07.777Z,2312.00
2019-03-23T06:14:07.695Z,2356.00
2019-03-23T06:15:07.628Z,2444.00
2019-03-23T06:16:07.528Z,2432.00
2019-03-23T06:17:07.440Z,2464.00
2019-03-23T06:18:07.356Z,2512.00
2019-03-23T06:19:07.279Z,2552.00
2019-03-23T06:20:07.190Z,2600.00
2019-03-23T06:21:07.104Z,2592.00
2019-03-23T06:22:07.018Z,2644.00
2019-03-23T06:23:06.945Z,2680.00
2019-03-23T06:24:06.854Z,2692.00
2019-03-23T06:25:06.769Z,2712.00
2019-03-23T06:26:06.682Z,2740.00
2019-03-23T06:27:06.607Z,2788.00
2019-03-23T06:28:06.515Z,2844.00
2019-03-23T06:29:06.429Z,2916.00
2019-03-23T06:30:06.354Z,2940.00
2019-03-23T06:31:06.266Z,2972.00
2019-03-23T06:32:06.179Z,3060.00
2019-03-23T06:33:06.094Z,3156.00
2019-03-23T06:34:06.005Z,3124.00
2019-03-23T06:35:05.930Z,3248.00
2019-03-23T06:36:05.842Z,3392.00
2019-03-23T06:37:05.759Z,3480.00
2019-03-23T06:38:05.668Z,3532.00
2019-03-23T06:39:05.948Z,3472.00
2019-03-23T06:40:05.505Z,3524.00
2019-03-23T06:41:05.420Z,3580.00
2019-03-23T06:42:05.343Z,3516.00
2019-03-23T06:43:05.256Z,3428.00
2019-03-23T06:44:05.167Z,3484.00
2019-03-23T06:45:05.082Z,3656.00
2019-03-23T06:46:05.006Z,3896.00
2019-03-23T06:47:04.924Z,3816.00
2019-03-23T06:48:04.837Z,3748.00
2019-03-23T06:49:04.757Z,3692.00
2019-03-23T06:50:04.669Z,3736.00
2019-03-23T06:51:04.582Z,3868.00
2019-03-23T06:52:04.506Z,3920.00
2019-03-23T06:53:04.418Z,3952.00
2019-03-23T06:54:04.333Z,4012.00
2019-03-23T06:55:04.257Z,3932.00
2019-03-23T06:56:04.169Z,3952.00
2019-03-23T06:57:04.084Z,4100.00
2019-03-23T06:58:04.007Z,4168.00
2019-03-23T06:59:03.919Z,4136.00
2019-03-23T07:00:03.833Z,4148.00
2019-03-23T07:01:03.758Z,4220.00
2019-03-23T07:02:03.673Z,4320.00
2019-03-23T07:03:03.618Z,4328.00
2019-03-23T07:04:03.509Z,4368.00
2019-03-23T07:05:03.433Z,4504.00
2019-03-23T07:06:03.347Z,4688.00
2019-03-23T07:07:03.258Z,4700.00
2019-03-23T07:08:03.184Z,4860.00
2019-03-23T07:09:03.095Z,4796.00
2019-03-23T07:10:03.009Z,4788.00
2019-03-23T07:11:02.934Z,4820.00
2019-03-23T07:12:02.846Z,4844.00
2019-03-23T07:13:02.761Z,4920.00
2019-03-23T07:14:02.684Z,4960.00
2019-03-23T07:15:02.596Z,4960.00
2019-03-23T07:16:02.511Z,4984.00
2019-03-23T07:17:02.435Z,5112.00
2019-03-23T07:18:02.347Z,5232.00
2019-03-23T07:19:02.272Z,5292.00
2019-03-23T07:20:02.185Z,5324.00
2019-03-23T07:21:02.109Z,5372.00
2019-03-23T07:22:02.022Z,5472.00
2019-03-23T07:23:01.935Z,5476.00
2019-03-23T07:24:01.861Z,5504.00
2019-03-23T07:25:01.773Z,5536.00
2019-03-23T07:26:01.699Z,5564.00
2019-03-23T07:27:01.618Z,5668.00
2019-03-23T07:28:01.535Z,5800.00
2019-03-23T07:29:01.449Z,5940.00
2019-03-23T07:30:01.374Z,6000.00
2019-03-23T07:31:01.286Z,6076.00
2019-03-23T07:32:05.711Z,6180.00
2019-03-23T07:33:01.142Z,6228.00
2019-03-23T07:34:01.052Z,6336.00
2019-03-23T07:35:00.963Z,6384.00
2019-03-23T07:36:00.890Z,6428.00
2019-03-23T07:37:00.798Z,6464.00
2019-03-23T07:38:00.724Z,6592.00
2019-03-23T07:39:00.636Z,6604.00
2019-03-23T07:40:00.564Z,6568.00
2019-03-23T07:41:00.474Z,6628.00
2019-03-23T07:42:00.412Z,6732.00
2019-03-23T07:43:00.324Z,6788.00
2019-03-23T07:44:00.237Z,6804.00
2019-03-23T07:45:00.343Z,6988.00
2019-03-23T07:46:00.075Z,6948.00
2019-03-23T07:47:00.001Z,7024.00
2019-03-23T07:47:59.924Z,7056.00
2019-03-23T07:48:59.842Z,7128.00
2019-03-23T07:49:59.763Z,7148.00
2019-03-23T07:50:59.688Z,7152.00
2019-03-23T07:51:59.600Z,7172.00
2019-03-23T07:52:59.526Z,7156.00
2019-03-23T07:53:59.465Z,7188.00
2019-03-23T07:54:59.364Z,7236.00
2019-03-23T07:55:59.292Z,7256.00
2019-03-23T07:56:59.214Z,7276.00
2019-03-23T07:57:59.142Z,7352.00
2019-03-23T07:58:59.053Z,7452.00
2019-03-23T07:59:58.978Z,8108.00
2019-03-23T08:00:58.901Z,8812.00
2019-03-23T08:01:58.826Z,9348.00
2019-03-23T08:02:58.741Z,9784.00
2019-03-23T08:03:58.666Z,9768.00
2019-03-23T08:04:58.597Z,9692.00
2019-03-23T08:05:58.517Z,9872.00
2019-03-23T08:06:58.442Z,10156.00
2019-03-23T08:07:58.365Z,10304.00
2019-03-23T08:08:58.277Z,10468.00
2019-03-23T08:09:58.202Z,10712.00
2019-03-23T08:10:58.128Z,10536.00
2019-03-23T08:11:58.066Z,10452.00
2019-03-23T08:12:57.977Z,10140.00
2019-03-23T08:13:57.903Z,9844.00
2019-03-23T08:14:57.828Z,9856.00
2019-03-23T08:15:57.742Z,10128.00
2019-03-23T08:16:57.666Z,10464.00
2019-03-23T08:17:57.599Z,10588.00
2019-03-23T08:18:57.516Z,10356.00
2019-03-23T08:19:57.442Z,9976.00
2019-03-23T08:20:57.368Z,10304.00
2019-03-23T08:21:57.298Z,10220.00
2019-03-23T08:22:57.216Z,10248.00
2019-03-23T08:23:57.141Z,10248.00
2019-03-23T08:24:57.067Z,10192.00
2019-03-23T08:25:56.996Z,10204.00
2019-03-23T08:26:56.905Z,10232.00
2019-03-23T08:27:56.832Z,9948.00
2019-03-23T08:28:56.767Z,9648.00
2019-03-23T08:29:56.679Z,9748.00
2019-03-23T08:30:56.605Z,9680.00
2019-03-23T08:31:56.530Z,9476.00
2019-03-23T08:32:56.463Z,8820.00
2019-03-23T08:33:56.380Z,8440.00
2019-03-23T08:34:58.054Z,8460.00
2019-03-23T08:35:56.230Z,8288.00
2019-03-23T08:36:56.162Z,8140.00
2019-03-23T08:37:56.080Z,8160.00
2019-03-23T08:38:56.005Z,8156.00
2019-03-23T08:39:55.930Z,8160.00
2019-03-23T08:40:55.857Z,8072.00
2019-03-23T08:41:55.781Z,8160.00
2019-03-23T08:42:55.706Z,8212.00
2019-03-23T08:43:55.631Z,8160.00
2019-03-23T08:44:55.558Z,8092.00
2019-03-23T08:45:55.487Z,8056.00
2019-03-23T08:46:55.407Z,8072.00
2019-03-23T08:47:55.332Z,8096.00
2019-03-23T08:48:55.258Z,8096.00
2019-03-23T08:49:55.194Z,8072.00
2019-03-23T08:50:55.111Z,8100.00
2019-03-23T08:51:55.033Z,8028.00
2019-03-23T08:52:54.972Z,8076.00
2019-03-23T08:53:54.905Z,7932.00
2019-03-23T08:54:54.820Z,7812.00
2019-03-23T08:55:54.745Z,7720.00
2019-03-23T08:56:54.671Z,7660.00
2019-03-23T08:57:54.596Z,7540.00
2019-03-23T08:58:54.520Z,7512.00
2019-03-23T08:59:54.446Z,7484.00
2019-03-23T09:00:54.371Z,7448.00
2019-03-23T09:01:54.297Z,7388.00
2019-03-23T09:02:54.223Z,7272.00
2019-03-23T09:03:54.147Z,7236.00
2019-03-23T09:04:54.075Z,7232.00
2019-03-23T09:05:53.997Z,7272.00
2019-03-23T09:06:53.921Z,7260.00
2019-03-23T09:07:53.847Z,7240.00
2019-03-23T09:08:53.771Z,7156.00
2019-03-23T09:09:59.160Z,7188.00
2019-03-23T09:10:53.622Z,7036.00
2019-03-23T09:11:53.549Z,6724.00
2019-03-23T09:12:53.483Z,6416.00
2019-03-23T09:13:53.397Z,6112.00
2019-03-23T09:14:53.322Z,5936.00
2019-03-23T09:15:53.247Z,5660.00
2019-03-23T09:16:53.173Z,5604.00
2019-03-23T09:17:53.098Z,5592.00
2019-03-23T09:18:53.022Z,5676.00
2019-03-23T09:19:52.950Z,5748.00
2019-03-23T09:20:52.874Z,6036.00
2019-03-23T09:21:52.801Z,6396.00
2019-03-23T09:22:52.727Z,6632.00
2019-03-23T09:23:52.650Z,6632.00
2019-03-23T09:24:56.853Z,6588.00
2019-03-23T09:25:52.499Z,6616.00
2019-03-23T09:26:52.424Z,6604.00
2019-03-23T09:27:52.350Z,6544.00
2019-03-23T09:28:52.275Z,6448.00
2019-03-23T09:29:52.199Z,6456.00
2019-03-23T09:30:52.123Z,6412.00
2019-03-23T09:31:52.050Z,6412.00
2019-03-23T09:32:51.978Z,6364.00
2019-03-23T09:33:51.900Z,6444.00
2019-03-23T09:34:51.824Z,6360.00
2019-03-23T09:35:51.738Z,6320.00
2019-03-23T09:36:51.675Z,6332.00
2019-03-23T09:37:51.587Z,6248.00
2019-03-23T09:38:51.515Z,6216.00
2019-03-23T09:39:51.436Z,6004.00
2019-03-23T09:40:51.363Z,6056.00
2019-03-23T09:41:51.289Z,5932.00
2019-03-23T09:42:51.213Z,5760.00
2019-03-23T09:43:51.137Z,5144.00
2019-03-23T09:44:51.064Z,5044.00
2019-03-23T09:45:50.987Z,5064.00
2019-03-23T09:46:50.913Z,5160.00
2019-03-23T09:47:50.838Z,5108.00
2019-03-23T09:48:50.764Z,5120.00
2019-03-23T09:49:50.688Z,5028.00
2019-03-23T09:50:50.613Z,5016.00
2019-03-23T09:51:50.539Z,5052.00
2019-03-23T09:52:50.463Z,5128.00
2019-03-23T09:53:50.401Z,5060.00
2019-03-23T09:54:50.316Z,5160.00
2019-03-23T09:55:50.239Z,5168.00
2019-03-23T09:56:50.164Z,5148.00
2019-03-23T09:57:50.090Z,5120.00
2019-03-23T09:58:50.002Z,5120.00
2019-03-23T09:59:49.927Z,5164.00
2019-03-23T10:00:49.853Z,5148.00
2019-03-23T10:01:49.778Z,5112.00
2019-03-23T10:02:49.703Z,5312.00
2019-03-23T10:03:49.629Z,5308.00
2019-03-23T10:04:49.553Z,5344.00
2019-03-23T10:05:49.466Z,5396.00
2019-03-23T10:06:49.389Z,5384.00
2019-03-23T10:07:49.315Z,5460.00
2019-03-23T10:08:49.253Z,5504.00
2019-03-23T10:09:49.167Z,5612.00
2019-03-23T10:10:49.082Z,5672.00
2019-03-23T10:11:49.005Z,5672.00
2019-03-23T10:12:48.929Z,5764.00
2019-03-23T10:13:48.858Z,5804.00
2019-03-23T10:14:48.781Z,5728.00
2019-03-23T10:15:48.692Z,5864.00
2019-03-23T10:16:48.616Z,5888.00
2019-03-23T10:17:48.542Z,5656.00
2019-03-23T10:18:48.466Z,5840.00
2019-03-23T10:19:48.391Z,5848.00
2019-03-23T10:20:48.316Z,5908.00
2019-03-23T10:21:48.230Z,5864.00
2019-03-23T10:22:48.205Z,5876.00
2019-03-23T10:23:48.080Z,6004.00
2019-03-23T10:24:48.008Z,5996.00
2019-03-23T10:25:47.918Z,5840.00
2019-03-23T10:26:47.842Z,6044.00
2019-03-23T10:27:47.780Z,5992.00
2019-03-23T10:28:47.692Z,5932.00
2019-03-23T10:29:47.617Z,6008.00
2019-03-23T10:30:47.542Z,6012.00
2019-03-23T10:31:47.455Z,6120.00
2019-03-23T10:32:47.381Z,6056.00
2019-03-23T10:33:47.306Z,6196.00
2019-03-23T10:34:47.223Z,6308.00
2019-03-23T10:35:47.143Z,6312.00
2019-03-23T10:36:47.068Z,6272.00
2019-03-23T10:37:46.994Z,6304.00
2019-03-23T10:38:46.931Z,6348.00
2019-03-23T10:39:46.843Z,6448.00
2019-03-23T10:40:46.761Z,6480.00
2019-03-23T10:41:46.683Z,6536.00
2019-03-23T10:42:46.607Z,6628.00
2019-03-23T10:43:46.535Z,6556.00
2019-03-23T10:44:46.450Z,6588.00
2019-03-23T10:45:46.370Z,6680.00
2019-03-23T10:46:46.294Z,6740.00
2019-03-23T10:47:46.261Z,6752.00
2019-03-23T10:48:46.145Z,6584.00
2019-03-23T10:49:46.077Z,6724.00
2019-03-23T10:50:45.983Z,6644.00
2019-03-23T10:51:45.908Z,6760.00
2019-03-23T10:52:45.840Z,6856.00
2019-03-23T10:53:45.758Z,6804.00
2019-03-23T10:54:45.683Z,7056.00
2019-03-23T10:55:45.595Z,7376.00
2019-03-23T10:56:45.520Z,7444.00
2019-03-23T10:57:45.458Z,7316.00
2019-03-23T10:58:45.370Z,7320.00
2019-03-23T10:59:45.296Z,7352.00
2019-03-23T11:00:45.221Z,7424.00
2019-03-23T11:01:45.133Z,7580.00
2019-03-23T11:02:45.060Z,7796.00
2019-03-23T11:03:44.984Z,7784.00
2019-03-23T11:04:44.909Z,8192.00
2019-03-23T11:05:44.835Z,8468.00
2019-03-23T11:06:44.747Z,8144.00
2019-03-23T11:07:44.685Z,8392.00
2019-03-23T11:08:44.596Z,8088.00
2019-03-23T11:09:44.522Z,8148.00
2019-03-23T11:10:44.459Z,8508.00
2019-03-23T11:11:44.374Z,8444.00
2019-03-23T11:12:44.298Z,8988.00
2019-03-23T11:13:44.222Z,8640.00
2019-03-23T11:14:44.136Z,9540.00
2019-03-23T11:15:44.061Z,12188.00
2019-03-23T11:16:43.986Z,10516.00
2019-03-23T11:17:43.911Z,9672.00
2019-03-23T11:18:43.835Z,12232.00
2019-03-23T11:19:43.762Z,12224.00
2019-03-23T11:20:43.686Z,12672.00
2019-03-23T11:21:43.623Z,12788.00
2019-03-23T11:22:43.536Z,12808.00
2019-03-23T11:23:45.457Z,11740.00
2019-03-23T11:24:43.388Z,11976.00
2019-03-23T11:25:43.312Z,10356.00
2019-03-23T11:26:43.236Z,9128.00
2019-03-23T11:27:43.162Z,12860.00
2019-03-23T11:28:43.091Z,12392.00
2019-03-23T11:29:43.014Z,12708.00
2019-03-23T11:30:42.937Z,12956.00
2019-03-23T11:31:42.867Z,12968.00
2019-03-23T11:32:42.790Z,13124.00
2019-03-23T11:33:42.719Z,13008.00
2019-03-23T11:34:42.650Z,13016.00
2019-03-23T11:35:42.575Z,13504.00
2019-03-23T11:36:42.513Z,13352.00
2019-03-23T11:37:42.643Z,13476.00
2019-03-23T11:38:42.351Z,13476.00
2019-03-23T11:39:42.275Z,13496.00
2019-03-23T11:40:52.044Z,13308.00
2019-03-23T11:41:42.139Z,13444.00
2019-03-23T11:42:49.894Z,13440.00
2019-03-23T11:43:41.991Z,13216.00
2019-03-23T11:44:41.940Z,13604.00
2019-03-23T11:45:41.851Z,13896.00
2019-03-23T11:46:41.776Z,13592.00
2019-03-23T11:47:41.701Z,12916.00
2019-03-23T11:48:41.627Z,13420.00
2019-03-23T11:49:41.564Z,13264.00
2019-03-23T11:50:41.490Z,13288.00
2019-03-23T11:51:41.415Z,13540.00
2019-03-23T11:52:41.340Z,13144.00
2019-03-23T11:53:41.280Z,13092.00
2019-03-23T11:54:41.201Z,13184.00
2019-03-23T11:55:41.129Z,13328.00
2019-03-23T11:56:41.054Z,13184.00
2019-03-23T11:57:40.990Z,13296.00
2019-03-23T11:58:40.941Z,13288.00
2019-03-23T11:59:40.841Z,13516.00
2019-03-23T12:00:40.778Z,13360.00
2019-03-23T12:01:40.702Z,13180.00
2019-03-23T12:02:40.630Z,13100.00
2019-03-23T12:03:40.553Z,13048.00
2019-03-23T12:04:40.492Z,13216.00
2019-03-23T12:05:40.429Z,13288.00
2019-03-23T12:06:40.343Z,13104.00
2019-03-23T12:07:40.278Z,12840.00
2019-03-23T12:08:40.203Z,13116.00
2019-03-23T12:09:40.128Z,13104.00
2019-03-23T12:10:40.057Z,12660.00
2019-03-23T12:11:39.996Z,13152.00
2019-03-23T12:12:39.918Z,13152.00
2019-03-23T12:13:39.842Z,13060.00
2019-03-23T12:14:39.768Z,13292.00
2019-03-23T12:15:39.704Z,13496.00
2019-03-23T12:16:39.629Z,13240.00
2019-03-23T12:17:39.555Z,13324.00
2019-03-23T12:18:39.492Z,13420.00
2019-03-23T12:19:39.419Z,13288.00
2019-03-23T12:20:39.342Z,12956.00
2019-03-23T12:21:39.269Z,13224.00
2019-03-23T12:22:39.193Z,13540.00
2019-03-23T12:23:39.130Z,13056.00
2019-03-23T12:24:39.055Z,14188.00
2019-03-23T12:25:38.980Z,14320.00
2019-03-23T12:26:38.905Z,13756.00
2019-03-23T12:27:38.833Z,12696.00
2019-03-23T12:28:38.768Z,13824.00
2019-03-23T12:29:38.694Z,14284.00
2019-03-23T12:30:38.621Z,14512.00
2019-03-23T12:31:38.543Z,13736.00
2019-03-23T12:32:38.469Z,14340.00
2019-03-23T12:33:38.394Z,15364.00
2019-03-23T12:34:38.326Z,14632.00
2019-03-23T12:35:38.256Z,15132.00
2019-03-23T12:36:38.183Z,14116.00
2019-03-23T12:37:38.105Z,14120.00
2019-03-23T12:38:38.031Z,13296.00
2019-03-23T12:39:37.957Z,13468.00
2019-03-23T12:40:37.882Z,13464.00
2019-03-23T12:41:37.808Z,13408.00
2019-03-23T12:42:37.732Z,13340.00
2019-03-23T12:43:37.657Z,13340.00
2019-03-23T12:44:37.586Z,13372.00
2019-03-23T12:45:38.901Z,13024.00
2019-03-23T12:46:47.688Z,13040.00
2019-03-23T12:47:37.357Z,13028.00
2019-03-23T12:48:37.283Z,13116.00
2019-03-23T12:49:37.209Z,13148.00
2019-03-23T12:50:37.135Z,12860.00
2019-03-23T12:51:37.059Z,13116.00
2019-03-23T12:52:36.996Z,12908.00
2019-03-23T12:53:36.923Z,13004.00
2019-03-23T12:54:36.846Z,13776.00
2019-03-23T12:55:36.771Z,12904.00
2019-03-23T12:56:36.744Z,12544.00
2019-03-23T12:57:36.629Z,12764.00
2019-03-23T12:58:36.546Z,13128.00
2019-03-23T12:59:36.471Z,12968.00
2019-03-23T13:00:36.401Z,12984.00
2019-03-23T13:01:36.325Z,12504.00
2019-03-23T13:02:36.249Z,12252.00
2019-03-23T13:03:36.172Z,12256.00
2019-03-23T13:04:36.097Z,12240.00
2019-03-23T13:05:36.023Z,12440.00
2019-03-23T13:06:35.950Z,11920.00
2019-03-23T13:07:35.872Z,11852.00
2019-03-23T13:08:35.801Z,12176.00
2019-03-23T13:09:35.723Z,11744.00
2019-03-23T13:10:35.648Z,12040.00
2019-03-23T13:11:36.252Z,11412.00
2019-03-23T13:12:35.497Z,11104.00
2019-03-23T13:13:35.425Z,10232.00
2019-03-23T13:14:35.400Z,10196.00
2019-03-23T13:15:35.274Z,10992.00
2019-03-23T13:16:35.198Z,10380.00
2019-03-23T13:17:35.124Z,10240.00
2019-03-23T13:18:35.047Z,11172.00
2019-03-23T13:19:34.974Z,10820.00
2019-03-23T13:21:34.827Z,11104.00
2019-03-23T13:22:34.752Z,10684.00
2019-03-23T13:23:34.674Z,10916.00
2019-03-23T13:24:34.599Z,10880.00
2019-03-23T13:25:34.525Z,10648.00
2019-03-23T13:26:34.451Z,10672.00
2019-03-23T13:27:34.375Z,10276.00
2019-03-23T13:28:34.300Z,10292.00
2019-03-23T13:29:34.225Z,10400.00
2019-03-23T13:30:34.138Z,10440.00
2019-03-23T13:31:35.431Z,10288.00
2019-03-23T13:32:33.987Z,10452.00
2019-03-23T13:33:33.912Z,10348.00
2019-03-23T13:34:33.837Z,10144.00
2019-03-23T13:35:33.762Z,10408.00
2019-03-23T13:36:33.689Z,10508.00
2019-03-23T13:37:33.613Z,10096.00
2019-03-23T13:38:33.538Z,9960.00
2019-03-23T13:39:33.462Z,9980.00
2019-03-23T13:40:33.402Z,9960.00
2019-03-23T13:41:33.318Z,9516.00
2019-03-23T13:42:34.168Z,9440.00
2019-03-23T13:43:33.163Z,7724.00
2019-03-23T13:44:33.101Z,7120.00
2019-03-23T13:45:42.268Z,7104.00
2019-03-23T13:46:32.933Z,7004.00
2019-03-23T13:47:32.863Z,7020.00
2019-03-23T13:48:32.778Z,6944.00
2019-03-23T13:49:32.702Z,6952.00
2019-03-23T13:50:32.629Z,6952.00
2019-03-23T13:51:32.551Z,7036.00
2019-03-23T13:52:32.465Z,7004.00
2019-03-23T13:53:32.403Z,6968.00
2019-03-23T13:54:32.318Z,6824.00
2019-03-23T13:55:32.241Z,6880.00
2019-03-23T13:56:32.164Z,6856.00
2019-03-23T13:57:32.081Z,6828.00
2019-03-23T13:58:32.003Z,6772.00
2019-03-23T13:59:31.929Z,6824.00
2019-03-23T14:00:31.841Z,6836.00
2019-03-23T14:01:31.766Z,6876.00
2019-03-23T14:02:31.703Z,6748.00
2019-03-23T14:03:31.604Z,6632.00
2019-03-23T14:04:31.530Z,6888.00
2019-03-23T14:05:31.501Z,6840.00
2019-03-23T14:06:31.369Z,6656.00
2019-03-23T14:07:31.307Z,6532.00
2019-03-23T14:08:31.216Z,6484.00
2019-03-23T14:09:31.130Z,6436.00
2019-03-23T14:10:31.054Z,6376.00
2019-03-23T14:11:30.985Z,6204.00
2019-03-23T14:12:30.892Z,5992.00
2019-03-23T14:13:30.819Z,5900.00
2019-03-23T14:14:30.742Z,5824.00
2019-03-23T14:15:30.666Z,5728.00
2019-03-23T14:16:30.581Z,5784.00
2019-03-23T14:17:30.504Z,5620.00
2019-03-23T14:18:30.418Z,5632.00
2019-03-23T14:19:30.342Z,5856.00
2019-03-23T14:20:30.261Z,6052.00
2019-03-23T14:21:30.180Z,6144.00
2019-03-23T14:22:30.093Z,5952.00
2019-03-23T14:23:30.020Z,5796.00
2019-03-23T14:24:29.943Z,5604.00
2019-03-23T14:25:29.856Z,5460.00
2019-03-23T14:26:29.781Z,5356.00
2019-03-23T14:27:29.706Z,5512.00
2019-03-23T14:28:29.618Z,5564.00
2019-03-23T14:29:29.557Z,5568.00
2019-03-23T14:30:29.456Z,5652.00
2019-03-23T14:31:29.389Z,5680.00
2019-03-23T14:32:29.294Z,5672.00
2019-03-23T14:33:29.219Z,6164.00
2019-03-23T14:34:29.131Z,5672.00
2019-03-23T14:35:29.057Z,5700.00
2019-03-23T14:36:28.985Z,5904.00
2019-03-23T14:37:28.895Z,6104.00
2019-03-23T14:38:28.819Z,6120.00
2019-03-23T14:39:28.735Z,6164.00
2019-03-23T14:40:28.661Z,6184.00
2019-03-23T14:41:28.583Z,6412.00
2019-03-23T14:42:28.495Z,6436.00
2019-03-23T14:43:28.422Z,6348.00
2019-03-23T14:44:28.345Z,6252.00
2019-03-23T14:45:28.258Z,6212.00
2019-03-23T14:46:28.183Z,6188.00
2019-03-23T14:47:28.101Z,6096.00
2019-03-23T14:48:28.020Z,5892.00
2019-03-23T14:49:27.934Z,5920.00
2019-03-23T14:50:27.858Z,5884.00
2019-03-23T14:51:27.774Z,5924.00
2019-03-23T14:52:27.695Z,5936.00
2019-03-23T14:53:27.609Z,5936.00
2019-03-23T14:54:27.533Z,5760.00
2019-03-23T14:55:27.448Z,5592.00
2019-03-23T14:56:31.690Z,5492.00
2019-03-23T14:57:27.297Z,5424.00
2019-03-23T14:58:27.210Z,5336.00
2019-03-23T14:59:27.134Z,5208.00
2019-03-23T15:00:27.047Z,5104.00
2019-03-23T15:01:26.972Z,5144.00
2019-03-23T15:02:26.897Z,5320.00
2019-03-23T15:03:26.810Z,5360.00
2019-03-23T15:04:26.737Z,5240.00
2019-03-23T15:05:26.647Z,4932.00
2019-03-23T15:06:26.574Z,5388.00
2019-03-23T15:07:26.488Z,5336.00
2019-03-23T15:08:26.411Z,4944.00
2019-03-23T15:09:26.336Z,4848.00
2019-03-23T15:10:26.248Z,4700.00
2019-03-23T15:11:26.173Z,4776.00
2019-03-23T15:12:26.086Z,4548.00
2019-03-23T15:13:26.012Z,4508.00
2019-03-23T15:14:25.924Z,4540.00
2019-03-23T15:15:25.848Z,4576.00
2019-03-23T15:16:25.767Z,4612.00
2019-03-23T15:17:25.686Z,4560.00
2019-03-23T15:18:25.611Z,4480.00
2019-03-23T15:19:25.525Z,4416.00
2019-03-23T15:20:25.450Z,4420.00
2019-03-23T15:21:25.363Z,4396.00
2019-03-23T15:22:25.291Z,4476.00
2019-03-23T15:23:25.199Z,4640.00
2019-03-23T15:24:25.125Z,4452.00
2019-03-23T15:25:25.038Z,4416.00
2019-03-23T15:26:24.965Z,4480.00
2019-03-23T15:27:24.887Z,4368.00
2019-03-23T15:28:24.801Z,4340.00
2019-03-23T15:29:24.739Z,4268.00
2019-03-23T15:30:24.638Z,4244.00
2019-03-23T15:31:24.566Z,4268.00
2019-03-23T15:32:24.478Z,4264.00
2019-03-23T15:33:24.404Z,4088.00
2019-03-23T15:34:24.315Z,4064.00
2019-03-23T15:35:24.239Z,4004.00
2019-03-23T15:36:24.151Z,3908.00
2019-03-23T15:37:24.076Z,3812.00
2019-03-23T15:38:23.989Z,3844.00
2019-03-23T15:39:23.915Z,3684.00
2019-03-23T15:40:23.840Z,3608.00
2019-03-23T15:41:24.802Z,3452.00
2019-03-23T15:42:25.067Z,3524.00
2019-03-23T15:43:23.592Z,3404.00
2019-03-23T15:44:23.515Z,3236.00
2019-03-23T15:45:23.426Z,3228.00
2019-03-23T15:46:23.364Z,3204.00
2019-03-23T15:47:23.265Z,3224.00
2019-03-23T15:48:23.190Z,3164.00
2019-03-23T15:49:23.105Z,3096.00
2019-03-23T15:50:23.028Z,3048.00
2019-03-23T15:51:22.954Z,3032.00
2019-03-23T15:52:22.867Z,3000.00
2019-03-23T15:53:22.790Z,2980.00
2019-03-23T15:54:22.703Z,2944.00
2019-03-23T15:55:22.627Z,2916.00
2019-03-23T15:56:22.541Z,2908.00
2019-03-23T15:57:22.467Z,2868.00
2019-03-23T15:58:22.380Z,3084.00
2019-03-23T15:59:22.316Z,3512.00
2019-03-23T16:00:22.216Z,3116.00
2019-03-23T16:01:23.273Z,2788.00
2019-03-23T16:02:22.053Z,2712.00
2019-03-23T16:03:21.981Z,2776.00
2019-03-23T16:04:21.893Z,2852.00
2019-03-23T16:05:21.818Z,2996.00
2019-03-23T16:06:21.729Z,2960.00
2019-03-23T16:07:29.235Z,2808.00
2019-03-23T16:08:21.579Z,2524.00
2019-03-23T16:09:21.493Z,2460.00
2019-03-23T16:10:21.406Z,2448.00
2019-03-23T16:11:21.329Z,2392.00